Time;durP1;ratioP1;P1;durP2;ratioP2;P2;SDS_P1;SDS_P2;PMS_P1;PMS_P2;Temp;Humidity;BMP_temperature;BMP_pressure;BME280_temperature;BME280_humidity;BME280_pressure;Samples;Min_cycle;Max_cycle;Signal;HPM_P1;HPM_P2
2023/05/23 05:03:42;;;;;;;51.75;35.05;;;17.90;99.90;;;;;;4887091;29;20040;-72
2023/05/23 05:06:08;;;;;;;55.10;34.20;;;17.80;99.90;;;;;;4891137;29;20318;-72
2023/05/23 05:08:35;;;;;;;50.40;34.60;;;17.90;99.90;;;;;;4874011;29;20063;-73
2023/05/23 05:11:01;;;;;;;50.92;35.08;;;17.90;99.90;;;;;;4885018;29;20048;-72
2023/05/23 05:13:26;;;;;;;49.42;33.30;;;18.00;99.90;;;;;;4874809;29;20021;-69
2023/05/23 05:15:54;;;;;;;47.83;33.77;;;18.00;99.90;;;;;;4874294;29;20085;-73
2023/05/23 05:18:21;;;;;;;48.20;34.00;;;18.00;99.90;;;;;;4874672;29;20195;-73
2023/05/23 05:20:47;;;;;;;53.78;34.75;;;18.00;99.90;;;;;;4874109;29;20032;-72
2023/05/23 05:23:13;;;;;;;49.20;33.55;;;18.10;99.90;;;;;;4862294;29;20325;-73
2023/05/23 05:25:40;;;;;;;48.97;33.33;;;18.20;99.90;;;;;;4890662;29;20033;-73
2023/05/23 05:28:06;;;;;;;47.47;34.13;;;18.20;99.90;;;;;;4874154;29;20021;-73
2023/05/23 05:30:37;;;;;;;51.13;33.03;;;18.30;99.90;;;;;;4874078;29;20052;-75
2023/05/23 05:33:04;;;;;;;47.03;32.95;;;18.30;99.90;;;;;;4874467;29;20248;-72
2023/05/23 05:35:31;;;;;;;48.08;32.88;;;18.40;99.90;;;;;;4874166;29;20025;-73
2023/05/23 05:37:58;;;;;;;47.08;32.65;;;18.30;99.90;;;;;;4873771;29;20378;-72
2023/05/23 05:40:25;;;;;;;47.38;32.92;;;18.30;99.90;;;;;;4890705;29;20029;-72
2023/05/23 05:42:50;;;;;;;47.22;33.38;;;18.30;99.90;;;;;;4890154;29;20044;-72
2023/05/23 05:45:17;;;;;;;46.65;33.53;;;18.20;99.90;;;;;;4874381;29;20028;-71
2023/05/23 05:47:44;;;;;;;48.92;32.13;;;18.20;99.90;;;;;;4873691;29;20080;-74
2023/05/23 05:50:11;;;;;;;45.50;33.03;;;18.10;99.90;;;;;;4889652;29;20320;-73
2023/05/23 05:52:41;;;;;;;45.20;32.85;;;18.20;99.90;;;;;;4870598;29;20097;-73
2023/05/23 05:55:11;;;;;;;47.05;32.85;;;18.20;99.90;;;;;;4886505;29;20026;-72
2023/05/23 05:57:38;;;;;;;45.13;32.35;;;18.40;99.90;;;;;;4872635;29;20033;-73
2023/05/23 06:00:17;;;;;;;45.38;32.38;;;18.50;99.90;;;;;;4873854;29;20122;-71
2023/05/23 06:02:50;;;;;;;43.67;31.33;;;18.50;99.90;;;;;;4852320;29;20054;-73
2023/05/23 06:05:25;;;;;;;43.00;32.08;;;18.50;99.90;;;;;;4852388;29;20025;-73
2023/05/23 06:07:51;;;;;;;48.30;33.35;;;18.50;99.90;;;;;;4853157;29;20053;-73
2023/05/23 06:10:17;;;;;;;45.53;32.42;;;18.60;99.90;;;;;;4850270;29;20030;-73
2023/05/23 06:12:44;;;;;;;44.85;31.58;;;18.60;99.90;;;;;;4851936;29;20078;-72
2023/05/23 06:15:12;;;;;;;44.75;32.97;;;18.60;99.90;;;;;;4852212;29;20038;-72
2023/05/23 06:17:38;;;;;;;42.20;30.75;;;18.60;99.90;;;;;;4851822;29;20018;-72
2023/05/23 06:20:04;;;;;;;42.10;30.30;;;18.70;99.90;;;;;;4851566;29;20334;-72
2023/05/23 06:22:31;;;;;;;42.13;31.23;;;18.80;99.90;;;;;;4852120;29;20114;-72
2023/05/23 06:24:57;;;;;;;41.70;30.27;;;18.90;99.90;;;;;;4852339;29;20328;-73
2023/05/23 06:27:23;;;;;;;43.33;30.67;;;19.00;99.90;;;;;;4867216;29;20323;-72
2023/05/23 06:29:48;;;;;;;41.50;30.73;;;19.00;99.90;;;;;;4852157;29;20045;-73
2023/05/23 06:32:14;;;;;;;44.42;32.08;;;19.00;99.90;;;;;;4852999;29;20109;-71
2023/05/23 06:34:40;;;;;;;42.88;31.73;;;19.00;99.90;;;;;;4851794;29;20097;-72
2023/05/23 06:37:06;;;;;;;43.60;32.17;;;18.90;99.90;;;;;;4852718;29;20026;-71
2023/05/23 06:39:31;;;;;;;43.60;32.35;;;18.90;99.90;;;;;;4856831;29;20046;-72
2023/05/23 06:41:57;;;;;;;43.00;32.60;;;18.80;99.90;;;;;;4866214;29;20087;-74
2023/05/23 06:44:23;;;;;;;39.03;30.88;;;18.80;99.90;;;;;;4853004;29;20060;-73
2023/05/23 06:46:57;;;;;;;47.85;32.72;;;18.80;99.90;;;;;;4861016;29;20306;-72
2023/05/23 06:49:24;;;;;;;44.78;32.60;;;18.70;99.90;;;;;;4852671;29;20057;-73
2023/05/23 06:51:50;;;;;;;46.97;33.50;;;18.80;99.90;;;;;;4850975;29;20045;-73
2023/05/23 06:54:17;;;;;;;43.17;31.98;;;18.80;99.90;;;;;;4852320;29;20022;-73
2023/05/23 06:56:43;;;;;;;41.78;31.33;;;18.80;99.90;;;;;;4860481;29;20037;-72
2023/05/23 06:59:09;;;;;;;45.67;31.98;;;18.70;99.90;;;;;;4851722;29;20060;-71
2023/05/23 07:01:35;;;;;;;42.38;32.63;;;18.60;99.90;;;;;;4853045;29;20038;-73
2023/05/23 07:04:01;;;;;;;44.25;32.67;;;18.40;99.90;;;;;;4853718;29;20158;-72
2023/05/23 07:06:27;;;;;;;43.80;32.45;;;18.40;99.90;;;;;;4870277;29;20052;-71
2023/05/23 07:08:53;;;;;;;43.95;31.48;;;18.40;99.90;;;;;;4853754;29;20318;-71
2023/05/23 07:11:21;;;;;;;41.30;32.23;;;18.30;99.90;;;;;;4844719;29;20219;-72
2023/05/23 07:13:53;;;;;;;43.65;32.20;;;18.30;99.90;;;;;;4857690;29;20462;-74
2023/05/23 07:16:29;;;;;;;42.83;31.73;;;18.20;99.90;;;;;;4851072;29;20037;-70
2023/05/23 07:19:02;;;;;;;43.25;32.70;;;18.10;99.90;;;;;;4872598;29;20033;-71
2023/05/23 07:21:30;;;;;;;43.72;31.23;;;18.00;99.90;;;;;;4853795;29;20021;-77
2023/05/23 07:23:56;;;;;;;40.17;30.30;;;18.00;99.90;;;;;;4852176;29;20038;-72
2023/05/23 07:26:22;;;;;;;39.47;29.40;;;17.90;99.90;;;;;;4853485;29;20025;-72
2023/05/23 07:28:51;;;;;;;37.80;27.30;;;17.90;99.90;;;;;;4853061;29;20290;-71
2023/05/23 07:31:17;;;;;;;35.53;26.00;;;18.00;99.90;;;;;;4868810;29;20030;-72
2023/05/23 07:33:43;;;;;;;32.60;24.73;;;18.10;99.90;;;;;;4868983;29;20041;-71
2023/05/23 07:36:12;;;;;;;27.92;21.42;;;18.20;99.90;;;;;;4853549;29;20036;-72
2023/05/23 07:38:38;;;;;;;30.48;22.50;;;18.20;99.90;;;;;;4870543;29;20069;-71
2023/05/23 07:41:04;;;;;;;40.30;24.13;;;18.10;99.90;;;;;;4868669;29;20029;-71
2023/05/23 07:43:29;;;;;;;39.03;23.77;;;18.00;99.90;;;;;;4853655;29;20029;-70
2023/05/23 07:45:55;;;;;;;30.38;22.45;;;18.00;99.90;;;;;;4865999;29;20026;-71
2023/05/23 07:48:21;;;;;;;34.08;23.92;;;18.00;99.90;;;;;;4861768;29;20071;-72
2023/05/23 07:50:47;;;;;;;33.20;24.70;;;18.00;99.90;;;;;;4869692;29;20045;-71
2023/05/23 07:53:13;;;;;;;36.92;28.13;;;18.00;99.90;;;;;;4853459;29;20033;-72
2023/05/23 07:55:40;;;;;;;35.30;27.15;;;17.90;99.90;;;;;;4853298;29;20041;-72
2023/05/23 07:58:06;;;;;;;33.25;26.48;;;17.90;99.90;;;;;;4853017;29;20032;-70
2023/05/23 08:00:35;;;;;;;33.17;25.95;;;18.10;99.90;;;;;;4851715;29;20037;-71
2023/05/23 08:03:10;;;;;;;32.88;25.13;;;18.30;99.90;;;;;;4849999;29;20073;-72
2023/05/23 08:05:42;;;;;;;30.05;23.95;;;18.70;99.90;;;;;;4865317;29;20041;-71
2023/05/23 08:08:08;;;;;;;30.30;22.60;;;18.90;99.90;;;;;;4868702;29;20366;-72
2023/05/23 08:10:34;;;;;;;27.85;21.33;;;18.90;99.90;;;;;;4858683;29;20037;-71
2023/05/23 08:13:09;;;;;;;30.10;20.92;;;18.70;99.90;;;;;;4849763;29;20087;-71
2023/05/23 08:15:40;;;;;;;27.58;20.33;;;18.50;99.90;;;;;;4864598;29;20033;-70
2023/05/23 08:18:13;;;;;;;23.95;18.98;;;18.50;99.90;;;;;;4853191;29;20096;-74
2023/05/23 08:20:38;;;;;;;26.65;18.20;;;18.50;99.90;;;;;;4853218;29;20379;-74
2023/05/23 08:23:04;;;;;;;34.42;18.95;;;18.60;99.90;;;;;;4849767;29;20034;-72
2023/05/23 08:25:30;;;;;;;26.55;18.88;;;18.50;99.90;;;;;;4863822;29;20037;-72
2023/05/23 08:27:57;;;;;;;24.27;17.98;;;18.50;99.90;;;;;;4853154;29;20052;-73
2023/05/23 08:30:47;;;;;;;25.35;19.17;;;18.50;99.90;;;;;;4852823;29;20033;-74
2023/05/23 08:33:13;;;;;;;23.48;18.05;;;18.20;99.90;;;;;;4850374;29;20113;-72
2023/05/23 08:35:43;;;;;;;;;;;18.10;99.90;;;;;;4865549;29;20295;-72
2023/05/23 08:38:11;;;;;;;25.88;18.90;;;18.00;99.90;;;;;;4869188;29;20043;-72
2023/05/23 08:40:50;;;;;;;25.20;17.55;;;18.00;99.90;;;;;;4868459;29;20029;-71
2023/05/23 08:43:16;;;;;;;25.80;18.15;;;17.90;99.90;;;;;;4870191;29;20090;-70
2023/05/23 08:45:43;;;;;;;23.80;17.63;;;17.90;99.90;;;;;;4872640;29;20201;-71
2023/05/23 08:48:13;;;;;;;24.30;17.67;;;17.90;99.90;;;;;;4856802;29;20034;-69
2023/05/23 08:50:46;;;;;;;25.20;16.88;;;18.00;99.90;;;;;;4871525;29;20040;-69
2023/05/23 08:53:19;;;;;;;23.40;16.63;;;18.10;99.90;;;;;;4872804;29;20039;-70
2023/05/23 08:55:50;;;;;;;24.48;16.98;;;18.20;99.90;;;;;;4856133;29;20033;-72
2023/05/23 08:58:21;;;;;;;19.40;15.98;;;18.30;99.90;;;;;;4856561;29;20061;-71
2023/05/23 09:00:53;;;;;;;22.67;16.08;;;18.20;99.90;;;;;;4853011;29;20041;-71
2023/05/23 09:03:21;;;;;;;20.60;15.52;;;18.30;99.90;;;;;;4863573;29;20053;-72
2023/05/23 09:06:02;;;;;;;21.02;15.70;;;18.20;99.90;;;;;;4855697;29;20263;-73
2023/05/23 09:08:29;;;;;;;19.80;15.77;;;18.20;99.90;;;;;;4856428;29;20158;-70
2023/05/23 09:10:57;;;;;;;22.08;16.08;;;18.10;99.90;;;;;;4845366;29;20481;-73
2023/05/23 09:13:24;;;;;;;21.33;16.25;;;18.10;99.90;;;;;;4856259;29;20165;-72
2023/05/23 09:15:56;;;;;;;;;;;18.10;99.90;;;;;;4853179;29;20057;-70
2023/05/23 09:18:35;;;;;;;22.10;16.88;;;18.20;99.90;;;;;;4867739;29;19908;-70
2023/05/23 09:21:02;;;;;;;20.45;15.93;;;18.30;99.90;;;;;;4852388;29;20057;-70
2023/05/23 09:23:35;;;;;;;23.88;16.33;;;18.40;99.90;;;;;;4865433;29;20021;-69
2023/05/23 09:26:07;;;;;;;24.17;15.55;;;18.50;99.90;;;;;;4852296;29;20026;-71
2023/05/23 09:28:33;;;;;;;20.90;15.80;;;18.50;99.90;;;;;;4864571;29;20322;-70
2023/05/23 09:31:05;;;;;;;21.10;15.77;;;18.30;99.90;;;;;;4854995;29;20048;-71
2023/05/23 09:33:37;;;;;;;20.42;15.27;;;18.30;99.90;;;;;;4855647;29;20090;-71
2023/05/23 09:36:05;;;;;;;30.48;15.88;;;18.40;99.90;;;;;;4854541;29;20025;-71
2023/05/23 09:38:37;;;;;;;18.15;13.68;;;18.30;99.90;;;;;;4870919;29;20040;-71
2023/05/23 09:41:06;;;;;;;22.10;13.77;;;18.30;99.90;;;;;;4868306;29;20058;-71
2023/05/23 09:43:33;;;;;;;18.42;13.02;;;18.40;99.90;;;;;;4852466;29;20131;-69
2023/05/23 09:46:10;;;;;;;19.73;13.48;;;18.40;99.90;;;;;;4854116;29;20203;-70
2023/05/23 09:48:36;;;;;;;19.25;12.65;;;18.50;99.90;;;;;;4872115;29;20045;-69
2023/05/23 09:51:08;;;;;;;16.20;12.98;;;18.80;99.90;;;;;;4866975;29;20033;-70
2023/05/23 09:53:35;;;;;;;16.65;12.23;;;18.90;99.90;;;;;;4863949;29;20215;-70
2023/05/23 09:56:05;;;;;;;15.85;11.93;;;19.10;99.90;;;;;;4870487;29;20100;-70
2023/05/23 09:58:35;;;;;;;18.15;12.50;;;19.10;99.90;;;;;;4871971;29;20029;-69
2023/05/23 10:01:02;;;;;;;18.25;12.48;;;19.10;99.90;;;;;;4871192;29;20032;-70
2023/05/23 10:03:34;;;;;;;20.33;12.98;;;18.90;99.90;;;;;;4871227;29;20048;-71
2023/05/23 10:06:08;;;;;;;20.88;12.05;;;18.90;99.90;;;;;;4854395;29;20342;-71
2023/05/23 10:08:43;;;;;;;16.75;11.25;;;18.90;99.90;;;;;;4871534;29;20030;-70
2023/05/23 10:11:33;;;;;;;15.98;11.40;;;19.10;99.90;;;;;;4870870;29;20082;-71
2023/05/23 10:14:17;;;;;;;15.63;11.80;;;19.10;99.90;;;;;;4870888;29;20038;-71
2023/05/23 10:17:09;;;;;;;16.50;12.23;;;19.20;99.90;;;;;;4871686;29;20037;-70
2023/05/23 10:19:57;;;;;;;15.57;11.65;;;19.40;99.90;;;;;;4868887;29;20043;-70
2023/05/23 10:22:25;;;;;;;14.30;11.43;;;19.60;99.90;;;;;;4871484;29;20098;-70
2023/05/23 10:24:52;;;;;;;13.65;11.43;;;20.10;99.90;;;;;;4870574;29;20033;-71
2023/05/23 10:27:18;;;;;;;14.38;11.73;;;20.40;99.90;;;;;;4870890;29;20037;-69
2023/05/23 10:29:45;;;;;;;13.18;10.32;;;20.70;99.60;;;;;;4871405;29;20029;-69
2023/05/23 10:32:14;;;;;;;12.20;10.40;;;20.90;98.90;;;;;;4870691;29;20390;-69
2023/05/23 10:34:57;;;;;;;15.25;11.60;;;21.00;98.60;;;;;;4871694;29;20033;-70
2023/05/23 10:37:40;;;;;;;12.35;9.57;;;21.00;97.60;;;;;;4871079;29;20104;-69
2023/05/23 10:40:27;;;;;;;11.52;9.88;;;20.80;98.00;;;;;;4870602;29;20048;-69
2023/05/23 10:43:09;;;;;;;13.07;10.05;;;20.80;97.60;;;;;;4870409;29;20044;-70
2023/05/23 10:45:57;;;;;;;11.13;8.50;;;20.80;97.10;;;;;;4870796;29;20064;-70
2023/05/23 10:48:45;;;;;;;12.20;8.73;;;20.90;96.70;;;;;;4870813;29;20025;-70
2023/05/23 10:51:14;;;;;;;11.77;8.85;;;21.00;96.30;;;;;;4870408;29;20216;-70
2023/05/23 10:53:44;;;;;;;11.13;8.07;;;21.00;96.20;;;;;;4870644;29;20036;-70
2023/05/23 10:56:23;;;;;;;11.65;8.63;;;20.90;96.50;;;;;;4870178;29;20045;-72
2023/05/23 10:58:57;;;;;;;11.93;8.98;;;20.90;96.50;;;;;;4870550;29;20030;-70
2023/05/23 11:01:26;;;;;;;11.63;8.13;;;20.90;96.50;;;;;;4849996;29;20057;-69
2023/05/23 11:03:53;;;;;;;11.13;8.18;;;20.70;96.70;;;;;;4846453;29;20042;-70
2023/05/23 11:06:43;;;;;;;11.63;8.85;;;20.80;96.50;;;;;;4851989;29;20069;-71
2023/05/23 11:09:18;;;;;;;14.63;8.20;;;20.80;96.10;;;;;;4851328;29;20109;-71
2023/05/23 11:11:52;;;;;;;10.77;8.10;;;20.80;96.00;;;;;;4852138;29;20362;-71
2023/05/23 11:14:29;;;;;;;19.25;8.18;;;20.80;95.90;;;;;;4851802;29;20113;-73
2023/05/23 11:16:55;;;;;;;10.60;7.80;;;20.80;96.10;;;;;;4851611;29;20034;-72
2023/05/23 11:19:26;;;;;;;10.15;7.53;;;21.00;95.70;;;;;;4851527;29;20369;-72
2023/05/23 11:21:53;;;;;;;8.73;6.78;;;21.20;94.90;;;;;;4851836;29;20201;-72
2023/05/23 11:24:19;;;;;;;8.95;6.50;;;21.30;94.60;;;;;;4851852;29;20331;-71
2023/05/23 11:27:02;;;;;;;11.85;6.72;;;21.40;94.10;;;;;;4852014;29;20057;-72
2023/05/23 11:29:28;;;;;;;8.77;6.60;;;21.50;93.70;;;;;;4851437;29;20227;-70
2023/05/23 11:31:55;;;;;;;10.07;6.45;;;21.50;93.50;;;;;;4851623;29;20052;-72
2023/05/23 11:34:24;;;;;;;7.60;6.30;;;21.50;93.00;;;;;;4851736;29;20030;-71
2023/05/23 11:36:55;;;;;;;15.18;6.78;;;21.60;92.70;;;;;;4850893;29;20397;-70
2023/05/23 11:39:22;;;;;;;15.00;7.57;;;21.80;92.60;;;;;;4851580;29;20041;-71
2023/05/23 11:42:01;;;;;;;11.13;7.22;;;21.50;92.90;;;;;;4847524;29;20042;-73
2023/05/23 11:44:27;;;;;;;9.93;7.60;;;21.50;93.60;;;;;;4850866;29;20070;-70
2023/05/23 11:47:06;;;;;;;10.93;8.25;;;21.50;93.70;;;;;;4851423;29;20204;-70
2023/05/23 11:49:39;;;;;;;10.32;8.30;;;21.50;93.70;;;;;;4851675;29;20042;-79
2023/05/23 11:52:06;;;;;;;11.00;8.32;;;21.30;93.70;;;;;;4850159;29;20101;-77
2023/05/23 11:54:32;;;;;;;9.55;8.20;;;21.40;94.00;;;;;;4847063;29;20047;-76
2023/05/23 11:56:58;;;;;;;10.40;7.93;;;21.40;93.60;;;;;;4843860;29;20041;-73
2023/05/23 11:59:25;;;;;;;11.93;8.43;;;21.50;93.70;;;;;;4850963;29;20343;-76
2023/05/23 12:01:52;;;;;;;9.38;7.57;;;21.70;93.10;;;;;;4869589;29;20034;-76
2023/05/23 12:04:18;;;;;;;10.50;6.97;;;21.90;92.50;;;;;;4862122;29;20231;-78
2023/05/23 12:06:48;;;;;;;11.88;7.10;;;22.10;91.90;;;;;;4853902;29;20079;-74
2023/05/23 12:09:14;;;;;;;9.68;7.63;;;22.30;92.00;;;;;;4841722;29;20049;-75
2023/05/23 12:11:42;;;;;;;12.23;8.30;;;22.60;91.40;;;;;;4851033;29;20036;-75
2023/05/23 12:14:12;;;;;;;10.50;7.43;;;22.80;91.20;;;;;;4850991;29;20065;-74
2023/05/23 12:16:38;;;;;;;9.18;7.43;;;23.40;90.10;;;;;;4851974;29;20052;-74
2023/05/23 12:19:05;;;;;;;9.80;6.60;;;23.70;87.70;;;;;;4861773;29;20026;-74
2023/05/23 12:22:05;;;;;;;8.52;6.90;;;24.00;87.70;;;;;;4854620;29;20097;-73
2023/05/23 12:24:31;;;;;;;18.20;7.60;;;23.90;87.00;;;;;;4847886;29;20041;-74
2023/05/23 12:27:01;;;;;;;9.90;6.22;;;23.60;87.20;;;;;;4854427;29;20209;-74
2023/05/23 12:29:32;;;;;;;8.00;5.60;;;23.60;88.50;;;;;;4854925;29;20319;-73
2023/05/23 12:31:59;;;;;;;7.28;5.30;;;25.40;84.00;;;;;;4854237;29;20303;-73
2023/05/23 12:34:25;;;;;;;6.60;4.80;;;27.10;80.00;;;;;;4855071;29;20105;-73
2023/05/23 12:36:59;;;;;;;8.25;5.03;;;28.40;76.80;;;;;;4855144;29;20092;-74
2023/05/23 12:39:29;;;;;;;6.13;4.75;;;29.20;74.10;;;;;;4854556;29;20034;-73
2023/05/23 12:42:05;;;;;;;6.30;5.13;;;28.20;73.50;;;;;;4854304;29;20048;-72
2023/05/23 12:44:31;;;;;;;7.75;5.18;;;27.60;75.10;;;;;;4854720;29;20049;-72
2023/05/23 12:46:57;;;;;;;7.13;4.63;;;27.30;75.80;;;;;;4854176;29;20038;-72
2023/05/23 12:49:22;;;;;;;8.05;4.85;;;26.70;77.40;;;;;;4868506;29;20144;-73
2023/05/23 12:51:48;;;;;;;9.88;5.88;;;26.00;78.30;;;;;;4853875;29;20025;-74
2023/05/23 12:54:14;;;;;;;6.10;4.88;;;25.90;79.70;;;;;;4853723;29;20050;-73
2023/05/23 12:56:40;;;;;;;6.72;5.20;;;25.90;79.50;;;;;;4854381;29;20112;-71
2023/05/23 12:59:06;;;;;;;6.63;5.25;;;26.60;78.10;;;;;;4853845;29;20268;-71
2023/05/23 13:01:33;;;;;;;9.18;5.15;;;26.50;77.60;;;;;;4854197;29;20051;-73
2023/05/23 13:04:00;;;;;;;5.22;4.32;;;26.50;77.60;;;;;;4869966;29;20050;-75
2023/05/23 13:06:27;;;;;;;7.28;3.97;;;27.00;77.70;;;;;;4872742;29;20319;-73
2023/05/23 13:08:53;;;;;;;4.78;3.72;;;28.60;74.10;;;;;;4872406;29;20072;-71
2023/05/23 13:11:23;;;;;;;5.55;3.80;;;30.10;71.30;;;;;;4855286;29;20215;-71
2023/05/23 13:13:49;;;;;;;6.45;4.68;;;30.90;68.70;;;;;;4872126;29;20092;-73
2023/05/23 13:16:15;;;;;;;5.78;3.75;;;30.40;67.00;;;;;;4872233;29;20052;-73
2023/05/23 13:18:41;;;;;;;5.38;3.78;;;29.50;67.90;;;;;;4872713;29;20315;-71
2023/05/23 13:21:07;;;;;;;5.20;4.05;;;28.60;70.00;;;;;;4871683;29;20256;-74
2023/05/23 13:23:34;;;;;;;4.35;3.63;;;27.50;72.30;;;;;;4872660;29;20143;-74
2023/05/23 13:26:00;;;;;;;5.22;3.88;;;26.50;74.10;;;;;;4871715;29;20041;-73
2023/05/23 13:28:29;;;;;;;5.20;3.95;;;25.60;76.70;;;;;;4872204;29;20041;-73
2023/05/23 13:30:55;;;;;;;5.65;4.28;;;25.10;78.60;;;;;;4870606;29;20066;-75
2023/05/23 13:33:22;;;;;;;5.55;3.83;;;24.60;78.70;;;;;;4872025;29;20303;-72
2023/05/23 13:35:51;;;;;;;4.95;3.80;;;24.20;79.90;;;;;;4872165;29;20037;-72
2023/05/23 13:38:18;;;;;;;5.28;3.45;;;23.30;82.20;;;;;;4871524;29;20223;-72
2023/05/23 13:40:44;;;;;;;5.25;4.05;;;22.90;84.00;;;;;;4871854;29;20052;-74
2023/05/23 13:43:10;;;;;;;8.82;4.05;;;22.50;85.50;;;;;;4871510;29;20025;-74
2023/05/23 13:45:36;;;;;;;5.97;3.92;;;22.30;85.90;;;;;;4871819;29;20060;-71
2023/05/23 13:48:01;;;;;;;6.57;4.07;;;22.30;86.40;;;;;;4871853;29;20037;-71
2023/05/23 13:50:27;;;;;;;4.97;3.90;;;22.20;86.70;;;;;;4871822;29;20343;-73
2023/05/23 13:52:53;;;;;;;7.25;3.95;;;22.30;87.00;;;;;;4871819;29;20193;-72
2023/05/23 13:55:19;;;;;;;5.97;3.80;;;22.50;86.10;;;;;;4871499;29;20074;-74
2023/05/23 13:57:45;;;;;;;5.63;4.10;;;22.70;85.20;;;;;;4871645;29;20101;-73
2023/05/23 14:00:11;;;;;;;4.43;3.30;;;22.80;85.20;;;;;;4871396;29;20292;-73
2023/05/23 14:02:37;;;;;;;4.07;3.50;;;22.90;85.10;;;;;;4871443;29;20118;-74
2023/05/23 14:05:03;;;;;;;4.82;3.50;;;23.40;84.50;;;;;;4871062;29;20311;-74
2023/05/23 14:07:29;;;;;;;4.40;3.45;;;23.80;83.40;;;;;;4871227;29;20101;-74
2023/05/23 14:09:58;;;;;;;3.65;3.03;;;23.90;83.30;;;;;;4871049;29;20049;-73
2023/05/23 14:12:25;;;;;;;4.57;3.08;;;24.30;82.70;;;;;;4871307;29;20101;-72
2023/05/23 14:14:51;;;;;;;5.82;3.10;;;24.90;80.80;;;;;;4871611;29;20048;-72
2023/05/23 14:17:17;;;;;;;29.85;6.50;;;25.60;79.50;;;;;;4871067;29;20044;-73
2023/05/23 14:19:46;;;;;;;8.55;3.20;;;25.80;77.90;;;;;;4871921;29;20090;-73
2023/05/23 14:22:11;;;;;;;4.70;3.08;;;26.00;77.70;;;;;;4852037;29;20060;-72
2023/05/23 14:24:40;;;;;;;4.47;3.33;;;25.90;78.10;;;;;;4871242;29;20192;-75
2023/05/23 14:27:08;;;;;;;4.10;3.13;;;25.60;78.30;;;;;;4870735;29;20195;-73
2023/05/23 14:29:34;;;;;;;5.70;3.58;;;25.60;78.50;;;;;;4871752;29;20307;-74
2023/05/23 14:32:02;;;;;;;4.10;3.03;;;25.40;79.60;;;;;;4870652;29;20131;-72
2023/05/23 14:34:28;;;;;;;4.47;3.40;;;25.40;79.80;;;;;;4871292;29;20105;-72
2023/05/23 14:36:57;;;;;;;5.22;3.33;;;25.90;78.80;;;;;;4871176;29;20033;-71
2023/05/23 14:39:24;;;;;;;3.90;2.47;;;26.80;77.00;;;;;;4871272;29;20040;-74
2023/05/23 14:41:49;;;;;;;4.57;2.83;;;28.50;74.50;;;;;;4851076;29;20335;-73
2023/05/23 14:44:15;;;;;;;4.18;2.70;;;30.20;71.00;;;;;;4868362;29;20056;-74
2023/05/23 14:46:47;;;;;;;5.47;2.90;;;31.30;67.70;;;;;;4870697;29;20044;-72
2023/05/23 14:49:21;;;;;;;3.25;2.70;;;31.00;66.90;;;;;;4852724;29;20041;-77
2023/05/23 14:51:47;;;;;;;3.75;2.70;;;30.20;67.40;;;;;;4863102;29;20051;-72
2023/05/23 14:54:14;;;;;;;4.40;2.58;;;28.60;70.40;;;;;;4870230;29;20323;-75
2023/05/23 14:56:41;;;;;;;3.22;2.80;;;27.40;73.30;;;;;;4836323;29;20037;-71
2023/05/23 14:59:07;;;;;;;3.63;2.70;;;26.30;74.70;;;;;;4868149;29;20021;-75
2023/05/23 15:01:33;;;;;;;4.75;2.92;;;25.80;76.40;;;;;;4870672;29;20392;-77
2023/05/23 15:04:00;;;;;;;3.70;2.65;;;25.30;77.30;;;;;;4870382;29;20081;-74
2023/05/23 15:06:26;;;;;;;4.78;3.08;;;25.10;77.90;;;;;;4838920;29;20062;-75
2023/05/23 15:08:52;;;;;;;6.38;2.72;;;25.30;78.00;;;;;;4851577;29;20041;-74
2023/05/23 15:11:18;;;;;;;4.53;3.05;;;25.20;78.70;;;;;;4853408;29;20057;-73
2023/05/23 15:13:43;;;;;;;3.55;2.42;;;26.40;76.80;;;;;;4870481;29;20036;-76
2023/05/23 15:16:09;;;;;;;4.82;2.70;;;28.00;72.40;;;;;;4853720;29;20037;-74
2023/05/23 15:18:35;;;;;;;2.83;2.38;;;28.10;72.00;;;;;;4854028;29;20067;-74
2023/05/23 15:21:00;;;;;;;4.47;2.47;;;27.10;72.50;;;;;;4869599;29;20032;-74
2023/05/23 15:23:26;;;;;;;4.20;3.03;;;26.00;74.50;;;;;;4870719;29;20068;-73
2023/05/23 15:25:52;;;;;;;4.72;2.67;;;25.20;76.60;;;;;;4870228;29;20273;-75
2023/05/23 15:28:17;;;;;;;4.35;3.10;;;24.60;77.90;;;;;;4867617;29;20077;-74
2023/05/23 15:30:43;;;;;;;3.92;2.45;;;24.20;79.10;;;;;;4870453;29;20063;-76
2023/05/23 15:33:11;;;;;;;3.53;2.20;;;24.10;79.10;;;;;;4869742;29;20037;-75
2023/05/23 15:35:36;;;;;;;3.07;2.27;;;24.90;77.20;;;;;;4870448;29;20319;-72
2023/05/23 15:38:02;;;;;;;3.55;2.05;;;26.40;73.60;;;;;;4851414;29;20070;-73
2023/05/23 15:40:27;;;;;;;5.00;1.73;;;27.50;71.80;;;;;;4864079;29;20312;-72
2023/05/23 15:42:56;;;;;;;3.00;2.03;;;27.40;69.70;;;;;;4869968;29;20030;-74
2023/05/23 15:45:22;;;;;;;3.97;2.60;;;27.10;71.00;;;;;;4870014;29;20085;-76
2023/05/23 15:47:48;;;;;;;4.82;2.88;;;26.90;72.90;;;;;;4870232;29;20034;-74
2023/05/23 15:50:13;;;;;;;5.32;2.75;;;27.60;72.20;;;;;;4868171;29;20038;-73
2023/05/23 15:52:39;;;;;;;5.70;2.55;;;28.80;70.60;;;;;;4870454;29;20299;-73
2023/05/23 15:55:05;;;;;;;4.50;2.85;;;28.90;69.90;;;;;;4873145;29;20037;-71
2023/05/23 15:57:32;;;;;;;4.18;2.70;;;30.00;68.10;;;;;;4868549;29;20215;-72
2023/05/23 15:59:58;;;;;;;3.72;2.42;;;30.90;66.60;;;;;;4873358;29;20041;-73
2023/05/23 16:02:23;;;;;;;2.85;2.28;;;31.80;65.30;;;;;;4873470;29;20475;-76
2023/05/23 16:04:49;;;;;;;2.97;2.28;;;32.80;63.90;;;;;;4874405;29;20037;-75
2023/05/23 16:07:18;;;;;;;4.03;2.13;;;33.30;61.90;;;;;;4872973;29;20044;-75
2023/05/23 16:09:43;;;;;;;3.10;2.13;;;33.20;60.40;;;;;;4867539;29;20041;-75
2023/05/23 16:12:09;;;;;;;3.40;2.33;;;33.20;60.80;;;;;;4878884;29;20048;-75
2023/05/23 16:14:35;;;;;;;3.40;2.50;;;33.80;60.10;;;;;;4877162;29;20117;-75
2023/05/23 16:17:05;;;;;;;3.97;2.30;;;33.70;59.60;;;;;;4863220;29;20033;-74
2023/05/23 16:19:31;;;;;;;4.15;2.70;;;32.80;60.10;;;;;;4876847;29;20041;-76
2023/05/23 16:21:57;;;;;;;3.22;2.65;;;32.50;59.90;;;;;;4856818;29;20037;-75
2023/05/23 16:24:23;;;;;;;4.35;2.97;;;32.50;60.50;;;;;;4872803;29;20031;-76
2023/05/23 16:26:48;;;;;;;3.70;2.45;;;32.00;61.00;;;;;;4873075;29;20025;-75
2023/05/23 16:29:14;;;;;;;4.70;3.30;;;32.00;61.00;;;;;;4873690;29;20029;-75
2023/05/23 16:31:40;;;;;;;5.35;3.40;;;32.40;61.10;;;;;;4873446;29;20037;-75
2023/05/23 16:34:06;;;;;;;4.20;3.25;;;32.60;60.30;;;;;;4872346;29;20026;-76
2023/05/23 16:36:32;;;;;;;4.13;2.75;;;32.00;59.70;;;;;;4873287;29;20049;-76
2023/05/23 16:38:57;;;;;;;7.25;4.00;;;31.30;60.30;;;;;;4873119;29;20041;-76
2023/05/23 16:41:23;;;;;;;7.15;4.45;;;30.00;62.80;;;;;;4872972;29;20049;-75
2023/05/23 16:43:49;;;;;;;5.88;4.20;;;28.60;66.10;;;;;;4873392;29;20027;-75
2023/05/23 16:46:15;;;;;;;6.65;4.32;;;27.50;68.00;;;;;;4881457;29;20260;-74
2023/05/23 16:48:41;;;;;;;5.50;4.13;;;26.80;69.50;;;;;;4873464;29;20045;-74
2023/05/23 16:51:07;;;;;;;7.47;4.88;;;26.40;70.90;;;;;;4872545;29;20203;-76
2023/05/23 16:53:35;;;;;;;7.20;5.50;;;25.50;73.10;;;;;;4872997;29;20033;-75
2023/05/23 16:56:03;;;;;;;7.85;5.50;;;24.90;74.80;;;;;;4871513;29;20044;-77
2023/05/23 16:58:28;;;;;;;7.07;5.88;;;24.20;76.20;;;;;;4872979;29;20029;-75
2023/05/23 17:00:55;;;;;;;7.30;5.35;;;24.10;76.70;;;;;;4872765;29;20040;-76
2023/05/23 17:03:21;;;;;;;8.25;5.15;;;24.50;75.60;;;;;;4871989;29;20448;-75
2023/05/23 17:05:46;;;;;;;11.60;4.93;;;24.90;75.30;;;;;;4872625;29;20065;-74
2023/05/23 17:08:12;;;;;;;8.50;5.50;;;25.80;74.40;;;;;;4856173;29;20041;-73
2023/05/23 17:10:38;;;;;;;12.52;5.47;;;26.50;72.30;;;;;;4861385;29;20069;-75
2023/05/23 17:13:03;;;;;;;7.68;4.80;;;27.20;70.90;;;;;;4872323;29;20037;-75
2023/05/23 17:15:30;;;;;;;5.60;4.97;;;27.60;70.70;;;;;;4872471;29;20243;-75
2023/05/23 17:17:55;;;;;;;6.05;4.47;;;28.00;68.70;;;;;;4872836;29;20070;-74
2023/05/23 17:20:23;;;;;;;6.03;4.65;;;28.20;68.70;;;;;;4857662;29;20041;-73
2023/05/23 17:22:50;;;;;;;8.30;4.63;;;28.10;69.00;;;;;;4871593;29;20025;-74
2023/05/23 17:25:16;;;;;;;7.47;5.30;;;28.10;68.50;;;;;;4872024;29;20053;-74
2023/05/23 17:27:42;;;;;;;5.90;4.20;;;28.00;68.50;;;;;;4872289;29;20387;-74
2023/05/23 17:30:08;;;;;;;4.97;3.50;;;27.60;68.90;;;;;;4871767;29;20041;-74
2023/05/23 17:32:34;;;;;;;4.72;3.85;;;27.20;69.60;;;;;;4872440;29;20366;-72
2023/05/23 17:35:00;;;;;;;5.22;3.95;;;26.90;70.50;;;;;;4872212;29;20041;-73
2023/05/23 17:37:25;;;;;;;5.25;2.90;;;26.40;71.70;;;;;;4871513;29;20042;-73
2023/05/23 17:40:00;;;;;;;4.35;3.30;;;26.60;71.00;;;;;;4872446;29;20065;-74
2023/05/23 17:42:26;;;;;;;5.13;3.38;;;26.30;71.20;;;;;;4870373;29;20041;-73
2023/05/23 17:44:52;;;;;;;4.75;3.17;;;26.30;71.50;;;;;;4861589;29;20021;-74
2023/05/23 17:47:18;;;;;;;4.53;2.85;;;26.50;71.10;;;;;;4871542;29;20064;-73